Time;durP1;ratioP1;P1;durP2;ratioP2;P2;SDS_P1;SDS_P2;PMS_P1;PMS_P2;Temp;Humidity;BMP_temperature;BMP_pressure;BME280_temperature;BME280_humidity;BME280_pressure;Samples;Min_cycle;Max_cycle;Signal;HPM_P1;HPM_P2
2023/07/17 00:00:38;;;;;;;3.15;1.80;;;;;;;;;;6131759;23;20192;-92
2023/07/17 00:03:06;;;;;;;1.95;1.85;;;;;;;;;;6131105;23;20188;-92
2023/07/17 00:05:34;;;;;;;2.22;2.13;;;;;;;;;;6132097;23;20195;-92
2023/07/17 00:08:02;;;;;;;2.55;2.25;;;;;;;;;;6136698;23;20178;-92
2023/07/17 00:10:29;;;;;;;2.30;2.08;;;;;;;;;;6133383;23;20192;-93
2023/07/17 00:12:58;;;;;;;2.63;2.33;;;;;;;;;;6133085;23;20168;-92
2023/07/17 00:15:27;;;;;;;2.20;2.00;;;;;;;;;;6137326;23;20199;-92
2023/07/17 00:17:54;;;;;;;1.60;1.50;;;;;;;;;;6153353;23;20175;-91
2023/07/17 00:20:23;;;;;;;2.95;1.90;;;;;;;;;;6154359;23;20188;-92
2023/07/17 00:22:50;;;;;;;2.22;1.92;;;;;;;;;;6146078;23;20160;-92
2023/07/17 00:25:18;;;;;;;2.28;2.08;;;;;;;;;;6135398;23;20179;-92
2023/07/17 00:27:46;;;;;;;3.67;2.17;;;;;;;;;;6134608;23;20175;-91
2023/07/17 00:30:15;;;;;;;3.58;2.30;;;;;;;;;;6133517;23;20207;-94
2023/07/17 00:32:42;;;;;;;2.70;2.25;;;;;;;;;;6132412;23;20183;-94
2023/07/17 00:35:10;;;;;;;1.80;1.70;;;;;;;;;;6132390;23;20172;-94
2023/07/17 00:37:37;;;;;;;1.80;1.65;;;;;;;;;;6132981;23;20192;-93
2023/07/17 00:40:07;;;;;;;1.98;1.88;;;;;;;;;;6132977;23;20199;-93
2023/07/17 00:42:34;;;;;;;1.92;1.70;;;;;;;;;;6132038;23;20192;-93
2023/07/17 00:45:02;;;;;;;2.50;2.30;;;;;;;;;;6132589;23;20191;-93
2023/07/17 00:47:31;;;;;;;1.92;1.80;;;;;;;;;;6132557;23;20751;-93
2023/07/17 00:49:59;;;;;;;4.32;3.00;;;;;;;;;;6132375;23;20264;-93
2023/07/17 00:52:27;;;;;;;1.60;1.50;;;;;;;;;;6133212;23;20186;-94
2023/07/17 00:54:55;;;;;;;1.85;1.75;;;;;;;;;;6133069;23;20183;-93
2023/07/17 00:57:25;;;;;;;2.33;1.80;;;;;;;;;;6132754;23;20255;-93
2023/07/17 00:59:53;;;;;;;3.17;1.63;;;;;;;;;;6132056;23;20196;-94
2023/07/17 01:02:21;;;;;;;2.30;2.10;;;;;;;;;;6132027;23;20196;-92
2023/07/17 01:04:50;;;;;;;2.10;2.00;;;;;;;;;;6134912;23;20557;-94
2023/07/17 01:07:17;;;;;;;2.05;1.95;;;;;;;;;;6132557;23;20175;-94
2023/07/17 01:09:45;;;;;;;2.10;1.90;;;;;;;;;;6147760;23;20700;-92
2023/07/17 01:12:12;;;;;;;2.35;2.08;;;;;;;;;;6153931;23;20160;-93
2023/07/17 01:14:40;;;;;;;2.75;2.00;;;;;;;;;;6153830;23;20163;-93
2023/07/17 01:17:08;;;;;;;2.17;1.90;;;;;;;;;;6139838;23;20172;-93
2023/07/17 01:19:35;;;;;;;2.45;1.95;;;;;;;;;;6132496;23;20191;-94
2023/07/17 01:22:08;;;;;;;1.70;1.60;;;;;;;;;;6131831;23;20255;-93
2023/07/17 01:24:37;;;;;;;1.75;1.65;;;;;;;;;;6131598;23;20172;-93
2023/07/17 01:27:06;;;;;;;1.88;1.77;;;;;;;;;;6131214;23;20246;-93
2023/07/17 01:29:33;;;;;;;1.65;1.55;;;;;;;;;;6131426;23;20208;-93
2023/07/17 01:32:01;;;;;;;1.85;1.45;;;;;;;;;;6131263;23;20259;-93
2023/07/17 01:34:28;;;;;;;1.98;1.67;;;;;;;;;;6130742;23;20195;-93
2023/07/17 01:36:56;;;;;;;1.95;1.67;;;;;;;;;;6130942;23;20179;-93
2023/07/17 01:39:24;;;;;;;1.75;1.65;;;;;;;;;;6132743;23;20191;-93
2023/07/17 01:41:53;;;;;;;2.58;1.50;;;;;;;;;;6134390;23;20196;-93
2023/07/17 01:44:21;;;;;;;1.98;1.70;;;;;;;;;;6132379;23;20492;-94
2023/07/17 01:46:48;;;;;;;1.50;1.40;;;;;;;;;;6130980;23;20187;-93
2023/07/17 01:49:16;;;;;;;2.40;2.10;;;;;;;;;;6129889;23;20199;-93
2023/07/17 01:51:43;;;;;;;2.70;1.90;;;;;;;;;;6129096;23;20195;-92
2023/07/17 01:54:11;;;;;;;2.05;1.73;;;;;;;;;;6129512;23;20251;-92
2023/07/17 01:56:39;;;;;;;1.77;1.60;;;;;;;;;;6129158;23;20243;-94
2023/07/17 01:59:08;;;;;;;3.20;1.90;;;;;;;;;;6129118;23;20243;-93
2023/07/17 02:01:35;;;;;;;2.80;1.92;;;;;;;;;;6129369;23;20276;-92
2023/07/17 02:04:03;;;;;;;4.07;2.38;;;;;;;;;;6128934;23;20172;-93
2023/07/17 02:06:31;;;;;;;2.17;1.70;;;;;;;;;;6129001;23;20204;-93
2023/07/17 02:08:58;;;;;;;1.95;1.85;;;;;;;;;;6129460;23;20251;-93
2023/07/17 02:11:29;;;;;;;3.80;1.80;;;;;;;;;;6129605;23;20266;-93
2023/07/17 02:13:56;;;;;;;1.95;1.85;;;;;;;;;;6128795;23;20175;-93
2023/07/17 02:16:25;;;;;;;2.70;2.35;;;;;;;;;;6129245;23;20221;-93
2023/07/17 02:18:53;;;;;;;2.90;1.58;;;;;;;;;;6129158;23;20192;-93
2023/07/17 02:21:20;;;;;;;2.55;1.95;;;;;;;;;;6128716;23;20192;-93
2023/07/17 02:23:48;;;;;;;2.53;2.33;;;;;;;;;;6128594;23;20190;-93
2023/07/17 02:26:16;;;;;;;1.77;1.67;;;;;;;;;;6129894;23;20206;-93
2023/07/17 02:28:43;;;;;;;1.75;1.60;;;;;;;;;;6130947;23;20179;-93
2023/07/17 02:31:11;;;;;;;1.95;1.85;;;;;;;;;;6129884;23;20187;-93
2023/07/17 02:33:40;;;;;;;2.50;2.00;;;;;;;;;;6128925;23;20251;-93
2023/07/17 02:36:08;;;;;;;2.33;1.88;;;;;;;;;;6128704;23;20171;-92
2023/07/17 02:38:35;;;;;;;1.80;1.40;;;;;;;;;;6129138;23;20188;-93
2023/07/17 02:41:03;;;;;;;1.40;1.30;;;;;;;;;;6129200;23;20231;-93
2023/07/17 02:43:31;;;;;;;2.25;1.80;;;;;;;;;;6130121;23;20215;-92
2023/07/17 02:45:58;;;;;;;2.90;1.75;;;;;;;;;;6141779;23;20172;-93
2023/07/17 02:48:26;;;;;;;1.60;1.50;;;;;;;;;;6141418;23;20186;-93
2023/07/17 02:50:55;;;;;;;2.03;1.83;;;;;;;;;;6129634;23;20573;-93
2023/07/17 02:53:22;;;;;;;1.55;1.45;;;;;;;;;;6128896;23;20183;-93
2023/07/17 02:55:50;;;;;;;2.28;2.10;;;;;;;;;;6128539;23;20240;-93
2023/07/17 02:58:18;;;;;;;2.28;2.08;;;;;;;;;;6128518;23;20198;-93
2023/07/17 03:00:45;;;;;;;2.42;1.67;;;;;;;;;;6129799;23;20227;-92
2023/07/17 03:03:13;;;;;;;2.75;1.75;;;;;;;;;;6128713;23;20270;-93
2023/07/17 03:05:40;;;;;;;4.10;2.90;;;;;;;;;;6129087;23;20227;-93
2023/07/17 03:08:10;;;;;;;3.42;1.85;;;;;;;;;;6130063;23;20231;-93
2023/07/17 03:10:37;;;;;;;2.33;2.03;;;;;;;;;;6129427;23;20201;-93
2023/07/17 03:13:05;;;;;;;2.30;2.00;;;;;;;;;;6129188;23;20247;-93
2023/07/17 03:15:32;;;;;;;3.20;2.90;;;;;;;;;;6129440;23;20179;-93
2023/07/17 03:18:00;;;;;;;2.80;2.50;;;;;;;;;;6129735;23;20543;-93
2023/07/17 03:20:28;;;;;;;2.33;2.13;;;;;;;;;;6130896;23;20226;-93
2023/07/17 03:22:56;;;;;;;2.80;2.50;;;;;;;;;;6130973;23;20207;-93
2023/07/17 03:25:25;;;;;;;2.63;2.38;;;;;;;;;;6130324;23;20175;-93
2023/07/17 03:27:53;;;;;;;1.92;1.80;;;;;;;;;;6130221;23;20191;-93
2023/07/17 03:30:20;;;;;;;1.98;1.75;;;;;;;;;;6135299;23;20198;-92
2023/07/17 03:32:48;;;;;;;2.25;1.80;;;;;;;;;;6152702;23;20164;-93
2023/07/17 03:35:16;;;;;;;1.67;1.50;;;;;;;;;;6153830;23;20152;-93
2023/07/17 03:37:43;;;;;;;2.88;1.77;;;;;;;;;;6153575;23;20152;-92
2023/07/17 03:40:12;;;;;;;1.63;1.52;;;;;;;;;;6152884;23;20195;-92
2023/07/17 03:42:41;;;;;;;3.25;2.00;;;;;;;;;;6154468;23;20221;-93
2023/07/17 03:45:10;;;;;;;1.90;1.80;;;;;;;;;;6135968;23;20215;-92
2023/07/17 03:47:37;;;;;;;2.00;1.80;;;;;;;;;;6133208;23;20183;-92
2023/07/17 03:50:06;;;;;;;3.60;1.85;;;;;;;;;;6131590;23;20223;-93
2023/07/17 03:52:34;;;;;;;2.13;1.95;;;;;;;;;;6132408;23;20195;-93
2023/07/17 03:55:01;;;;;;;2.13;1.92;;;;;;;;;;6135404;23;20184;-93
2023/07/17 03:57:29;;;;;;;2.50;2.28;;;;;;;;;;6128174;23;20199;-93
2023/07/17 03:59:58;;;;;;;2.75;2.45;;;;;;;;;;6128912;23;20195;-93
2023/07/17 04:02:25;;;;;;;2.42;2.22;;;;;;;;;;6128879;23;20191;-93
2023/07/17 04:04:53;;;;;;;2.50;2.03;;;;;;;;;;6129191;23;20184;-93
2023/07/17 04:07:21;;;;;;;1.77;1.67;;;;;;;;;;6131924;23;20316;-93
2023/07/17 04:09:48;;;;;;;2.10;1.90;;;;;;;;;;6144768;23;20191;-92
2023/07/17 04:12:16;;;;;;;2.10;1.90;;;;;;;;;;6144055;23;20172;-92
2023/07/17 04:14:44;;;;;;;1.70;1.60;;;;;;;;;;6135187;23;20652;-93
2023/07/17 04:17:12;;;;;;;2.75;2.00;;;;;;;;;;6130066;23;20255;-93
2023/07/17 04:19:40;;;;;;;2.47;1.95;;;;;;;;;;6127372;23;20215;-93
2023/07/17 04:22:08;;;;;;;1.75;1.65;;;;;;;;;;6127661;23;20223;-93
2023/07/17 04:24:35;;;;;;;2.50;2.28;;;;;;;;;;6127310;23;20212;-92
2023/07/17 04:27:03;;;;;;;2.55;1.70;;;;;;;;;;6127886;23;20172;-92
2023/07/17 04:29:31;;;;;;;1.60;1.50;;;;;;;;;;6129370;23;20203;-93
2023/07/17 04:31:59;;;;;;;3.67;2.20;;;;;;;;;;6129952;23;20250;-94
2023/07/17 04:34:30;;;;;;;2.33;2.03;;;;;;;;;;6129220;23;20202;-93
2023/07/17 04:36:58;;;;;;;2.58;2.38;;;;;;;;;;6129041;23;20223;-94
2023/07/17 04:39:26;;;;;;;2.30;2.10;;;;;;;;;;6128796;23;20243;-93
2023/07/17 04:41:53;;;;;;;2.78;2.53;;;;;;;;;;6127205;23;20435;-94
2023/07/17 04:44:21;;;;;;;3.47;3.13;;;;;;;;;;6123580;23;20576;-93
2023/07/17 04:46:48;;;;;;;1.95;1.80;;;;;;;;;;6125799;23;20243;-92
2023/07/17 04:49:16;;;;;;;4.15;3.15;;;;;;;;;;6151566;23;20160;-92
2023/07/17 04:51:45;;;;;;;3.28;2.97;;;;;;;;;;6143727;23;20184;-92
2023/07/17 04:54:12;;;;;;;4.00;3.13;;;;;;;;;;6131134;23;20389;-93
2023/07/17 04:56:40;;;;;;;2.80;2.45;;;;;;;;;;6127245;23;20251;-92
2023/07/17 04:59:08;;;;;;;4.63;3.03;;;;;;;;;;6127986;23;20191;-93
2023/07/17 05:01:35;;;;;;;2.88;2.25;;;;;;;;;;6131796;23;20668;-93
2023/07/17 05:04:03;;;;;;;2.33;2.13;;;;;;;;;;6127836;23;20211;-93
2023/07/17 05:06:31;;;;;;;4.20;2.78;;;;;;;;;;6128375;23;20176;-93
2023/07/17 05:09:01;;;;;;;3.83;3.05;;;;;;;;;;6127250;23;20172;-92
2023/07/17 05:11:28;;;;;;;2.45;2.10;;;;;;;;;;6127783;23;20207;-93
2023/07/17 05:13:56;;;;;;;2.15;1.95;;;;;;;;;;6132170;23;20203;-93
2023/07/17 05:16:23;;;;;;;2.60;2.15;;;;;;;;;;6128647;23;20198;-94
2023/07/17 05:18:51;;;;;;;3.95;2.50;;;;;;;;;;6128272;23;20692;-93
2023/07/17 05:21:19;;;;;;;2.70;2.47;;;;;;;;;;6128940;23;20218;-93
2023/07/17 05:23:47;;;;;;;4.22;3.00;;;;;;;;;;6128252;23;20215;-92
2023/07/17 05:26:16;;;;;;;3.30;2.55;;;;;;;;;;6127491;23;20214;-93
2023/07/17 05:28:44;;;;;;;3.92;3.10;;;;;;;;;;6128161;23;20247;-93
2023/07/17 05:31:11;;;;;;;2.47;2.10;;;;;;;;;;6128460;23;20270;-93
2023/07/17 05:33:39;;;;;;;2.42;2.20;;;;;;;;;;6130536;23;20194;-94
2023/07/17 05:36:07;;;;;;;1.92;1.80;;;;;;;;;;6132590;23;20175;-94
2023/07/17 05:38:34;;;;;;;3.38;2.75;;;;;;;;;;6137418;23;20176;-94
2023/07/17 05:41:02;;;;;;;2.47;2.20;;;;;;;;;;6148282;23;20196;-94
2023/07/17 05:43:32;;;;;;;4.30;2.67;;;;;;;;;;6151233;23;20156;-95
2023/07/17 05:45:59;;;;;;;3.38;3.08;;;;;;;;;;6151458;23;20269;-94
2023/07/17 05:48:27;;;;;;;4.72;2.90;;;;;;;;;;6151233;23;20163;-94
2023/07/17 05:50:54;;;;;;;2.67;2.47;;;;;;;;;;6150700;23;20179;-94
2023/07/17 05:53:22;;;;;;;4.10;2.80;;;;;;;;;;6148925;23;20374;-94
2023/07/17 05:55:50;;;;;;;3.22;2.75;;;;;;;;;;6142722;23;20180;-94
2023/07/17 05:58:17;;;;;;;3.20;2.90;;;;;;;;;;6139021;23;20191;-93
2023/07/17 06:00:47;;;;;;;2.53;2.33;;;;;;;;;;6142807;23;20196;-93
2023/07/17 06:03:15;;;;;;;4.68;3.92;;;;;;;;;;6151048;23;20167;-95
2023/07/17 06:05:42;;;;;;;2.55;2.35;;;;;;;;;;6151555;23;20204;-95
2023/07/17 06:08:10;;;;;;;4.07;3.28;;;;;;;;;;6149563;23;20171;-94
2023/07/17 06:10:38;;;;;;;3.97;3.45;;;;;;;;;;6151954;23;20227;-91
2023/07/17 06:13:05;;;;;;;5.13;3.55;;;;;;;;;;6151646;23;20187;-95
2023/07/17 06:15:33;;;;;;;6.05;3.22;;;;;;;;;;6147212;23;20186;-94
2023/07/17 06:18:02;;;;;;;4.97;3.55;;;;;;;;;;6141479;23;20175;-93
2023/07/17 06:20:30;;;;;;;4.78;3.80;;;;;;;;;;6146722;23;20196;-93
2023/07/17 06:22:57;;;;;;;6.43;3.83;;;;;;;;;;6147892;23;20176;-93
2023/07/17 06:25:26;;;;;;;4.22;3.20;;;;;;;;;;6147270;23;20199;-94
2023/07/17 06:27:53;;;;;;;4.85;3.67;;;;;;;;;;6143030;23;20176;-94
2023/07/17 06:30:21;;;;;;;3.78;3.17;;;;;;;;;;6140586;23;20208;-94
2023/07/17 06:32:49;;;;;;;3.70;3.40;;;;;;;;;;6140422;23;20186;-93
2023/07/17 06:35:18;;;;;;;3.28;2.97;;;;;;;;;;6139933;23;20171;-94
2023/07/17 06:37:46;;;;;;;3.20;2.30;;;;;;;;;;6139560;23;20199;-93
2023/07/17 06:40:14;;;;;;;4.20;3.30;;;;;;;;;;6137562;23;20210;-93
2023/07/17 06:42:41;;;;;;;3.90;3.47;;;;;;;;;;6131341;23;20175;-93
2023/07/17 06:45:10;;;;;;;4.25;3.15;;;;;;;;;;6128601;23;20222;-93
2023/07/17 06:47:37;;;;;;;3.28;2.97;;;;;;;;;;6128220;23;20568;-94
2023/07/17 06:50:06;;;;;;;3.78;3.05;;;;;;;;;;6129221;23;20275;-93
2023/07/17 06:52:37;;;;;;;6.90;3.30;;;;;;;;;;6135720;23;20211;-94
2023/07/17 06:55:08;;;;;;;11.05;3.72;;;;;;;;;;6132949;23;20178;-94
2023/07/17 06:57:36;;;;;;;2.95;2.63;;;;;;;;;;6133544;23;20167;-94
2023/07/17 07:00:07;;;;;;;2.42;2.22;;;;;;;;;;6134158;23;20203;-93
2023/07/17 07:03:03;;;;;;;2.45;2.15;;;;;;;;;;6139547;23;20164;-94
2023/07/17 07:05:57;;;;;;;;;;;;;;;;;;;;;
2023/07/17 07:08:32;;;;;;;2.83;2.47;;;;;;;;;;6133700;23;20175;-94
2023/07/17 07:11:02;;;;;;;2.40;2.13;;;;;;;;;;6132954;23;20191;-94
2023/07/17 07:13:30;;;;;;;2.22;2.03;;;;;;;;;;6138723;23;20227;-93
2023/07/17 07:15:57;;;;;;;2.65;2.45;;;;;;;;;;6141389;23;20200;-94
2023/07/17 07:18:25;;;;;;;4.22;2.10;;;;;;;;;;6138657;23;20178;-93
2023/07/17 07:20:53;;;;;;;2.33;2.00;;;;;;;;;;6137679;23;20219;-94
2023/07/17 07:23:20;;;;;;;1.77;1.67;;;;;;;;;;6138175;23;20172;-93
2023/07/17 07:25:49;;;;;;;2.47;2.28;;;;;;;;;;6141153;23;20195;-94
2023/07/17 07:28:17;;;;;;;2.47;1.95;;;;;;;;;;6151486;23;20176;-94
2023/07/17 07:30:44;;;;;;;4.10;2.72;;;;;;;;;;6151647;23;20202;-94
2023/07/17 07:33:12;;;;;;;4.25;2.67;;;;;;;;;;6144692;23;20524;-94
2023/07/17 07:35:43;;;;;;;3.30;2.67;;;;;;;;;;6140617;23;20647;-95
2023/07/17 07:38:11;;;;;;;2.85;2.28;;;;;;;;;;6148021;23;20156;-94
2023/07/17 07:40:39;;;;;;;2.67;2.47;;;;;;;;;;6151455;23;20192;-93
2023/07/17 07:43:08;;;;;;;3.92;2.80;;;;;;;;;;6144411;23;20183;-92
2023/07/17 07:45:36;;;;;;;2.45;2.25;;;;;;;;;;6141453;23;20196;-94
2023/07/17 07:48:03;;;;;;;2.53;2.33;;;;;;;;;;6141310;23;20184;-94
2023/07/17 07:50:31;;;;;;;3.72;2.33;;;;;;;;;;6140076;23;20196;-94
2023/07/17 07:52:58;;;;;;;2.20;2.00;;;;;;;;;;6141697;23;20195;-93
2023/07/17 07:55:26;;;;;;;2.58;2.38;;;;;;;;;;6139830;23;20235;-92
2023/07/17 07:57:54;;;;;;;2.72;2.53;;;;;;;;;;6138013;23;20195;-93
2023/07/17 08:00:24;;;;;;;2.45;2.25;;;;;;;;;;6140391;23;20204;-95
2023/07/17 08:02:54;;;;;;;2.90;2.47;;;;;;;;;;6150622;23;20178;-93
2023/07/17 08:05:22;;;;;;;2.40;2.20;;;;;;;;;;6152936;23;20187;-93
2023/07/17 08:07:50;;;;;;;4.50;2.72;;;;;;;;;;6154746;23;20159;-93
2023/07/17 08:10:17;;;;;;;2.65;2.33;;;;;;;;;;6153869;23;20190;-94
2023/07/17 08:12:45;;;;;;;4.32;2.25;;;;;;;;;;6154264;23;20171;-95
2023/07/17 08:15:13;;;;;;;2.38;2.17;;;;;;;;;;6154478;23;20156;-93
2023/07/17 08:17:42;;;;;;;2.38;2.10;;;;;;;;;;6152428;23;20168;-93
2023/07/17 08:20:10;;;;;;;2.00;1.90;;;;;;;;;;6151733;23;20176;-94
2023/07/17 08:22:38;;;;;;;2.50;2.30;;;;;;;;;;6149973;23;20176;-95
2023/07/17 08:25:07;;;;;;;2.47;1.83;;;;;;;;;;6149671;23;20232;-94
2023/07/17 08:27:34;;;;;;;2.42;2.20;;;;;;;;;;6153034;23;20172;-94
2023/07/17 08:30:04;;;;;;;2.38;2.15;;;;;;;;;;6151041;23;20195;-93
2023/07/17 08:32:32;;;;;;;2.97;2.10;;;;;;;;;;6149676;23;20175;-93
2023/07/17 08:35:00;;;;;;;2.03;1.92;;;;;;;;;;6149643;23;20175;-94
2023/07/17 08:37:28;;;;;;;3.20;1.98;;;;;;;;;;6152449;23;20172;-93
2023/07/17 08:39:56;;;;;;;2.08;1.67;;;;;;;;;;6151542;23;20188;-93
2023/07/17 08:42:23;;;;;;;2.33;2.13;;;;;;;;;;6152426;23;20160;-94
2023/07/17 08:44:51;;;;;;;2.95;1.80;;;;;;;;;;6150931;23;20172;-93
2023/07/17 08:47:20;;;;;;;2.03;1.83;;;;;;;;;;6151159;23;20207;-94
2023/07/17 08:49:48;;;;;;;2.78;2.13;;;;;;;;;;6151864;23;20195;-93
2023/07/17 08:52:19;;;;;;;2.08;1.88;;;;;;;;;;6149539;23;20171;-94
2023/07/17 08:54:47;;;;;;;2.00;1.80;;;;;;;;;;6148021;23;20164;-94
2023/07/17 08:57:15;;;;;;;3.28;2.67;;;;;;;;;;6148884;23;20179;-93
2023/07/17 08:59:43;;;;;;;2.38;1.88;;;;;;;;;;6149431;23;20195;-94
2023/07/17 09:02:11;;;;;;;3.25;2.22;;;;;;;;;;6150352;23;20171;-94
2023/07/17 09:04:38;;;;;;;2.10;1.95;;;;;;;;;;6148722;23;20180;-94
2023/07/17 09:07:06;;;;;;;2.10;1.90;;;;;;;;;;6145992;23;20196;-93
2023/07/17 09:09:35;;;;;;;2.38;1.67;;;;;;;;;;6145638;23;20192;-95
2023/07/17 09:12:11;;;;;;;1.83;1.50;;;;;;;;;;6145634;23;20186;-94
2023/07/17 09:14:39;;;;;;;1.77;1.65;;;;;;;;;;6144404;23;20171;-93
2023/07/17 09:17:08;;;;;;;2.10;1.90;;;;;;;;;;6146473;23;20180;-92
2023/07/17 09:19:37;;;;;;;2.95;2.28;;;;;;;;;;6142469;23;20255;-94
2023/07/17 09:22:06;;;;;;;1.73;1.63;;;;;;;;;;6145684;23;20172;-94
2023/07/17 09:24:36;;;;;;;2.00;1.75;;;;;;;;;;6146382;23;20156;-94
2023/07/17 09:27:07;;;;;;;2.10;1.83;;;;;;;;;;6148173;23;20183;-95
2023/07/17 09:29:35;;;;;;;1.90;1.80;;;;;;;;;;6150173;23;20187;-94
2023/07/17 09:32:18;;;;;;;1.63;1.40;;;;;;;;;;6150987;23;20156;-94
2023/07/17 09:34:50;;;;;;;1.63;1.52;;;;;;;;;;6152412;23;20175;-94
2023/07/17 09:37:18;;;;;;;2.38;1.88;;;;;;;;;;6152593;23;20173;-93
2023/07/17 09:39:48;;;;;;;1.83;1.73;;;;;;;;;;6150348;23;20198;-94
2023/07/17 09:42:24;;;;;;;3.35;1.90;;;;;;;;;;6147750;23;20180;-94
2023/07/17 09:44:53;;;;;;;2.33;2.05;;;;;;;;;;6146925;23;20151;-94
2023/07/17 09:47:21;;;;;;;2.15;1.60;;;;;;;;;;6145284;23;20223;-92
2023/07/17 09:49:50;;;;;;;1.52;1.42;;;;;;;;;;6147406;23;20215;-93
2023/07/17 09:53:32;;;;;;;2.90;2.10;;;;;;;;;;6105056;23;1397973;-94
2023/07/17 09:56:02;;;;;;;2.20;1.77;;;;;;;;;;6114413;23;20175;-94
2023/07/17 09:58:31;;;;;;;1.73;1.45;;;;;;;;;;6147781;23;20164;-94
2023/07/17 10:00:59;;;;;;;2.72;1.65;;;;;;;;;;6147598;23;20196;-93
2023/07/17 10:03:27;;;;;;;2.00;1.83;;;;;;;;;;6147798;23;20519;-94
2023/07/17 10:05:55;;;;;;;1.60;1.50;;;;;;;;;;6148179;23;20176;-94
2023/07/17 10:08:23;;;;;;;1.63;1.52;;;;;;;;;;6145925;23;20172;-94
2023/07/17 10:10:51;;;;;;;1.58;1.33;;;;;;;;;;6151605;23;20188;-93
2023/07/17 10:13:20;;;;;;;1.80;1.70;;;;;;;;;;6152345;23;20168;-94
2023/07/17 10:15:48;;;;;;;2.60;1.80;;;;;;;;;;6151594;23;20178;-93
2023/07/17 10:18:16;;;;;;;1.63;1.50;;;;;;;;;;6150639;23;20179;-93
2023/07/17 10:20:53;;;;;;;1.20;1.13;;;;;;;;;;6151901;23;20187;-93
2023/07/17 10:23:25;;;;;;;1.42;1.33;;;;;;;;;;6151163;23;20178;-94
2023/07/17 10:26:06;;;;;;;1.90;1.73;;;;;;;;;;6153137;23;20152;-93
2023/07/17 10:28:36;;;;;;;1.67;1.50;;;;;;;;;;6153258;23;20152;-92
2023/07/17 10:31:11;;;;;;;1.55;1.45;;;;;;;;;;6152530;23;20184;-94
2023/07/17 10:33:39;;;;;;;1.60;1.50;;;;;;;;;;6150912;23;20159;-93
2023/07/17 10:36:07;;;;;;;1.77;1.35;;;;;;;;;;6153323;23;20156;-93
2023/07/17 10:38:37;;;;;;;2.05;1.88;;;;;;;;;;6153019;23;20164;-93
2023/07/17 10:41:07;;;;;;;1.65;1.55;;;;;;;;;;6152847;23;20190;-92
2023/07/17 10:43:37;;;;;;;1.45;1.35;;;;;;;;;;6152932;23;20178;-93
2023/07/17 10:46:10;;;;;;;3.05;1.88;;;;;;;;;;6151417;23;20235;-94
2023/07/17 10:48:38;;;;;;;1.73;1.58;;;;;;;;;;6147837;23;20179;-95
2023/07/17 10:51:06;;;;;;;2.10;1.70;;;;;;;;;;6145855;23;20202;-93
2023/07/17 10:53:34;;;;;;;2.95;1.65;;;;;;;;;;6152833;23;20152;-92
2023/07/17 10:56:08;;;;;;;2.03;1.80;;;;;;;;;;6153226;23;20159;-93
2023/07/17 10:58:39;;;;;;;1.60;1.50;;;;;;;;;;6153192;23;20159;-93
2023/07/17 11:01:10;;;;;;;5.13;1.60;;;;;;;;;;6152679;23;20247;-94
2023/07/17 11:03:44;;;;;;;2.60;1.70;;;;;;;;;;6152956;23;20194;-92
2023/07/17 11:06:15;;;;;;;1.88;1.40;;;;;;;;;;6148093;23;20196;-93
2023/07/17 11:08:54;;;;;;;2.00;1.80;;;;;;;;;;6144306;23;20184;-94
2023/07/17 11:11:32;;;;;;;1.65;1.50;;;;;;;;;;6141574;23;20207;-93
2023/07/17 11:14:05;;;;;;;1.73;1.50;;;;;;;;;;6139832;23;20167;-93
2023/07/17 11:16:42;;;;;;;1.23;1.13;;;;;;;;;;6139696;23;20168;-93
2023/07/17 11:19:13;;;;;;;2.35;1.63;;;;;;;;;;6139406;23;20164;-93
2023/07/17 11:21:48;;;;;;;1.60;1.50;;;;;;;;;;6134364;23;20175;-92
2023/07/17 11:24:15;;;;;;;1.50;1.40;;;;;;;;;;6136338;23;20218;-91
2023/07/17 11:26:49;;;;;;;1.50;1.40;;;;;;;;;;6136311;23;20176;-92
2023/07/17 11:29:25;;;;;;;2.05;1.30;;;;;;;;;;6134513;23;20203;-91
2023/07/17 11:32:01;;;;;;;1.05;1.00;;;;;;;;;;6134415;23;20175;-92
2023/07/17 11:34:29;;;;;;;1.17;1.17;;;;;;;;;;6132943;23;20182;-92
2023/07/17 11:36:57;;;;;;;2.97;1.40;;;;;;;;;;6134736;23;20368;-92
2023/07/17 11:39:31;;;;;;;1.48;1.38;;;;;;;;;;6134045;23;20195;-92
2023/07/17 11:42:07;;;;;;;1.63;1.50;;;;;;;;;;6135884;23;20531;-91
2023/07/17 11:44:46;;;;;;;1.13;1.08;;;;;;;;;;6137783;23;20159;-91
2023/07/17 11:47:17;;;;;;;1.20;1.10;;;;;;;;;;6142935;23;20251;-93
2023/07/17 11:49:46;;;;;;;1.35;1.23;;;;;;;;;;6141332;23;20212;-92
2023/07/17 11:52:19;;;;;;;1.58;1.48;;;;;;;;;;6138662;23;20190;-92
2023/07/17 11:55:00;;;;;;;0.93;0.93;;;;;;;;;;6137811;23;20175;-92
2023/07/17 11:57:28;;;;;;;1.10;1.05;;;;;;;;;;6138011;23;20180;-91
2023/07/17 12:00:05;;;;;;;2.78;2.47;;;;;;;;;;6142234;23;20214;-93
2023/07/17 12:02:32;;;;;;;1.60;1.42;;;;;;;;;;6146580;23;20168;-92
2023/07/17 12:05:02;;;;;;;1.23;1.15;;;;;;;;;;6141341;23;20195;-92
2023/07/17 12:07:30;;;;;;;2.03;1.33;;;;;;;;;;6135166;23;20199;-91
2023/07/17 12:09:57;;;;;;;1.15;1.15;;;;;;;;;;6138719;23;20199;-92
2023/07/17 12:12:25;;;;;;;1.10;0.98;;;;;;;;;;6135779;23;20191;-92
2023/07/17 12:14:52;;;;;;;1.40;1.30;;;;;;;;;;6136780;23;20184;-92
2023/07/17 12:17:21;;;;;;;1.40;1.20;;;;;;;;;;6136053;23;20256;-92
2023/07/17 12:19:49;;;;;;;1.40;1.30;;;;;;;;;;6144090;23;20198;-92
2023/07/17 12:22:16;;;;;;;1.00;1.00;;;;;;;;;;6151407;23;20172;-92
2023/07/17 12:24:44;;;;;;;1.00;1.00;;;;;;;;;;6152224;23;20164;-91
2023/07/17 12:27:12;;;;;;;1.23;1.13;;;;;;;;;;6151257;23;20176;-92
2023/07/17 12:29:39;;;;;;;2.05;1.10;;;;;;;;;;6149101;23;20208;-93
2023/07/17 12:32:08;;;;;;;1.67;1.42;;;;;;;;;;6140482;23;20198;-93
2023/07/17 12:34:37;;;;;;;1.58;1.48;;;;;;;;;;6141294;23;20183;-92
2023/07/17 12:37:05;;;;;;;3.92;1.85;;;;;;;;;;6138367;23;20176;-91
2023/07/17 12:39:32;;;;;;;1.92;1.55;;;;;;;;;;6139978;23;20196;-92
2023/07/17 12:42:00;;;;;;;1.35;1.25;;;;;;;;;;6140658;23;20229;-93
2023/07/17 12:44:29;;;;;;;1.42;1.33;;;;;;;;;;6138283;23;20176;-92
2023/07/17 12:46:57;;;;;;;1.60;1.50;;;;;;;;;;6139526;23;20175;-92
2023/07/17 12:49:25;;;;;;;1.00;1.00;;;;;;;;;;6136410;23;20219;-92
2023/07/17 12:51:54;;;;;;;1.38;1.27;;;;;;;;;;6140212;23;20180;-92
2023/07/17 12:54:22;;;;;;;1.52;1.42;;;;;;;;;;6137066;23;20181;-92
2023/07/17 12:56:49;;;;;;;1.00;1.00;;;;;;;;;;6141428;23;20176;-92
2023/07/17 12:59:17;;;;;;;2.03;1.52;;;;;;;;;;6138915;23;20192;-93
2023/07/17 13:01:46;;;;;;;1.33;1.23;;;;;;;;;;6140899;23;20191;-92
2023/07/17 13:04:14;;;;;;;1.42;1.15;;;;;;;;;;6153767;23;20183;-93
2023/07/17 13:06:41;;;;;;;1.50;1.40;;;;;;;;;;6150977;23;20178;-92
2023/07/17 13:09:10;;;;;;;1.35;1.25;;;;;;;;;;6145372;23;20206;-93
2023/07/17 13:11:38;;;;;;;2.45;1.17;;;;;;;;;;6147022;23;20176;-93
2023/07/17 13:14:07;;;;;;;5.90;1.70;;;;;;;;;;6143861;23;20250;-92
2023/07/17 13:16:35;;;;;;;1.10;1.10;;;;;;;;;;6146036;23;20163;-92
2023/07/17 13:19:03;;;;;;;1.50;1.40;;;;;;;;;;6145194;23;20176;-93
2023/07/17 13:21:30;;;;;;;1.63;1.30;;;;;;;;;;6145934;23;20202;-93
2023/07/17 13:24:00;;;;;;;1.35;1.25;;;;;;;;;;6144291;23;20172;-92
2023/07/17 13:26:33;;;;;;;1.60;1.35;;;;;;;;;;6146851;23;20182;-92
2023/07/17 13:29:03;;;;;;;2.72;1.17;;;;;;;;;;6146122;23;20242;-92
2023/07/17 13:31:31;;;;;;;1.40;1.30;;;;;;;;;;6142933;23;20590;-92
2023/07/17 13:33:58;;;;;;;2.67;1.65;;;;;;;;;;6146221;23;20179;-92
2023/07/17 13:36:26;;;;;;;1.40;1.30;;;;;;;;;;6145103;23;20203;-92
2023/07/17 13:38:53;;;;;;;1.60;1.40;;;;;;;;;;6145552;23;20172;-93
2023/07/17 13:41:41;;;;;;;1.52;1.40;;;;;;;;;;6142432;23;20706;-92
2023/07/17 13:44:09;;;;;;;1.92;1.27;;;;;;;;;;6145236;23;20179;-92
2023/07/17 13:46:37;;;;;;;2.20;1.95;;;;;;;;;;6144680;23;20247;-92
2023/07/17 13:49:05;;;;;;;2.42;1.73;;;;;;;;;;6145001;23;20184;-93
2023/07/17 13:51:33;;;;;;;2.42;1.75;;;;;;;;;;6144479;23;20209;-93
2023/07/17 13:54:01;;;;;;;1.52;1.40;;;;;;;;;;6144474;23;20200;-92
2023/07/17 13:56:29;;;;;;;1.20;1.15;;;;;;;;;;6145773;23;20560;-92
2023/07/17 13:58:58;;;;;;;1.45;1.35;;;;;;;;;;6146025;23;20176;-93
2023/07/17 14:01:26;;;;;;;1.38;1.20;;;;;;;;;;6147232;23;20184;-93
2023/07/17 14:03:54;;;;;;;2.13;1.38;;;;;;;;;;6142885;23;20172;-92
2023/07/17 14:06:22;;;;;;;1.50;1.40;;;;;;;;;;6144171;23;20175;-93
2023/07/17 14:08:49;;;;;;;4.72;1.45;;;;;;;;;;6145345;23;20195;-91
2023/07/17 14:11:17;;;;;;;2.22;1.70;;;;;;;;;;6146700;23;20192;-92
2023/07/17 14:13:44;;;;;;;1.77;1.50;;;;;;;;;;6143206;23;20179;-92
2023/07/17 14:16:13;;;;;;;1.92;1.40;;;;;;;;;;6141600;23;20178;-93
2023/07/17 14:18:41;;;;;;;1.63;1.52;;;;;;;;;;6141626;23;20175;-92
2023/07/17 14:21:09;;;;;;;1.58;1.38;;;;;;;;;;6143952;23;20196;-92
2023/07/17 14:23:37;;;;;;;1.70;1.60;;;;;;;;;;6148598;23;20176;-92
2023/07/17 14:26:05;;;;;;;1.58;1.48;;;;;;;;;;6144668;23;20163;-93
2023/07/17 14:28:33;;;;;;;1.42;1.33;;;;;;;;;;6143257;23;20176;-92
2023/07/17 14:31:02;;;;;;;1.65;1.55;;;;;;;;;;6144574;23;20187;-92
2023/07/17 14:33:31;;;;;;;1.80;1.70;;;;;;;;;;6144132;23;20172;-93
2023/07/17 14:35:59;;;;;;;1.60;1.50;;;;;;;;;;6145139;23;20171;-92
2023/07/17 14:38:27;;;;;;;3.15;1.52;;;;;;;;;;6143613;23;20172;-94
2023/07/17 14:40:54;;;;;;;1.60;1.50;;;;;;;;;;6144211;23;20196;-92
2023/07/17 14:43:22;;;;;;;1.52;1.42;;;;;;;;;;6142890;23;20172;-92
2023/07/17 14:45:49;;;;;;;1.88;1.65;;;;;;;;;;6144559;23;20171;-92
2023/07/17 14:48:17;;;;;;;1.65;1.55;;;;;;;;;;6145157;23;20183;-92
2023/07/17 14:50:46;;;;;;;1.85;1.60;;;;;;;;;;6144525;23;20200;-92
2023/07/17 14:53:14;;;;;;;1.75;1.65;;;;;;;;;;6140328;23;20195;-93